createdAt,value
2024-04-11T00:03:02.000Z,13.57
2024-04-11T00:08:02.000Z,13.57
2024-04-11T00:13:02.000Z,13.44
2024-04-11T00:18:03.000Z,13.27
2024-04-11T00:23:02.000Z,13.16
2024-04-11T00:28:03.000Z,13.15
2024-04-11T00:33:02.000Z,13.14
2024-04-11T00:38:02.000Z,13.25
2024-04-11T00:43:02.000Z,13.27
2024-04-11T00:48:01.000Z,13.25
2024-04-11T00:53:03.000Z,13.32
2024-04-11T00:58:02.000Z,13.38
2024-04-11T01:03:02.000Z,13.34
2024-04-11T01:08:02.000Z,13.37
2024-04-11T01:13:03.000Z,13.46
2024-04-11T01:18:02.000Z,13.59
2024-04-11T01:23:02.000Z,13.77
2024-04-11T01:28:02.000Z,14.03
2024-04-11T01:33:02.000Z,14.22
2024-04-11T01:38:02.000Z,14.47
2024-04-11T01:43:02.000Z,14.76
2024-04-11T01:48:02.000Z,14.89
2024-04-11T01:53:02.000Z,15.02
2024-04-11T01:58:02.000Z,15.26
2024-04-11T02:03:03.000Z,15.43
2024-04-11T02:08:03.000Z,15.25
2024-04-11T02:13:03.000Z,15.29
2024-04-11T02:18:03.000Z,15.39
2024-04-11T02:23:02.000Z,15.52
2024-04-11T02:28:02.000Z,16.01
2024-04-11T02:33:02.000Z,16.37
2024-04-11T02:38:03.000Z,16.51
2024-04-11T02:43:02.000Z,16.67
2024-04-11T02:48:02.000Z,16.86
2024-04-11T02:53:02.000Z,16.99
2024-04-11T02:58:01.000Z,17.15
2024-04-11T03:03:02.000Z,17.3
2024-04-11T03:08:02.000Z,17.47
2024-04-11T03:13:03.000Z,17.7
2024-04-11T03:18:02.000Z,17.92
2024-04-11T03:23:02.000Z,18.25
2024-04-11T03:28:03.000Z,18.36
2024-04-11T03:33:03.000Z,18.4
2024-04-11T03:38:03.000Z,18.44
2024-04-11T03:43:03.000Z,18.65
2024-04-11T03:48:03.000Z,18.88
2024-04-11T03:53:03.000Z,18.97
2024-04-11T03:58:02.000Z,19.02
2024-04-11T04:03:02.000Z,19.06
2024-04-11T04:08:02.000Z,19.1
2024-04-11T04:13:03.000Z,19.39
2024-04-11T04:18:02.000Z,19.69
2024-04-11T04:23:02.000Z,19.71
2024-04-11T04:28:02.000Z,19.83
2024-04-11T04:33:02.000Z,20.21
2024-04-11T04:38:02.000Z,20.4
2024-04-11T04:43:03.000Z,20.26
2024-04-11T04:48:03.000Z,20.39
2024-04-11T04:53:03.000Z,20.61
2024-04-11T04:58:02.000Z,21.04
2024-04-11T05:03:03.000Z,21.2
2024-04-11T05:08:03.000Z,20.91
2024-04-11T05:13:02.000Z,20.97
2024-04-11T05:18:03.000Z,21.17
2024-04-11T05:23:03.000Z,21.58
2024-04-11T05:28:02.000Z,21.75
2024-04-11T05:33:02.000Z,21.89
2024-04-11T05:38:02.000Z,22.01
2024-04-11T05:43:03.000Z,22.08
2024-04-11T05:48:02.000Z,22.3
2024-04-11T05:53:02.000Z,22.58
2024-04-11T05:58:02.000Z,22.27
2024-04-11T06:03:02.000Z,21.72
2024-04-11T06:08:02.000Z,21.76
2024-04-11T06:13:03.000Z,22.1
2024-04-11T06:18:02.000Z,22.25
2024-04-11T06:23:02.000Z,22.31
2024-04-11T06:28:02.000Z,22.17
2024-04-11T06:33:02.000Z,22.22
2024-04-11T06:38:03.000Z,22.18
2024-04-11T06:43:03.000Z,22.03
2024-04-11T06:48:03.000Z,22.02
2024-04-11T06:53:02.000Z,22.12
2024-04-11T06:58:02.000Z,22.14
2024-04-11T07:03:02.000Z,22.3
2024-04-11T07:08:02.000Z,22.26
2024-04-11T07:13:03.000Z,22.32
2024-04-11T07:18:03.000Z,22.5
2024-04-11T07:23:02.000Z,22.75
2024-04-11T07:28:02.000Z,22.7
2024-04-11T07:33:03.000Z,22.61
2024-04-11T07:38:02.000Z,22.48
2024-04-11T07:43:03.000Z,22.58
2024-04-11T07:48:02.000Z,22.64
2024-04-11T07:53:02.000Z,22.75
2024-04-11T07:58:02.000Z,22.7
2024-04-11T08:03:03.000Z,22.66
2024-04-11T08:08:02.000Z,22.32
2024-04-11T08:13:02.000Z,22.52
2024-04-11T08:18:03.000Z,22.92
2024-04-11T08:23:03.000Z,22.97
2024-04-11T08:28:02.000Z,22.85
2024-04-11T08:33:03.000Z,23.02
2024-04-11T08:38:02.000Z,23.3
2024-04-11T08:43:03.000Z,23.36
2024-04-11T08:48:03.000Z,23.26
2024-04-11T08:53:02.000Z,23.31
2024-04-11T08:58:02.000Z,23.29
2024-04-11T09:03:02.000Z,23.4
2024-04-11T09:08:03.000Z,23.44
2024-04-11T09:13:03.000Z,23.35
2024-04-11T09:18:02.000Z,23.29
2024-04-11T09:23:02.000Z,23.41
2024-04-11T09:28:02.000Z,23.38
2024-04-11T09:33:02.000Z,23.44
2024-04-11T09:38:02.000Z,23.13
2024-04-11T09:43:02.000Z,23.25
2024-04-11T09:48:03.000Z,23.39
2024-04-11T09:53:03.000Z,23.48
2024-04-11T09:58:02.000Z,23.59
2024-04-11T10:03:02.000Z,23.59
2024-04-11T10:08:03.000Z,23.25
2024-04-11T10:18:02.000Z,23.32
2024-04-11T10:23:02.000Z,23.28
2024-04-11T10:28:02.000Z,23.13
2024-04-11T10:33:02.000Z,23.16
2024-04-11T10:38:02.000Z,23.24
2024-04-11T10:43:02.000Z,23.39
2024-04-11T10:48:02.000Z,23.52
2024-04-11T10:53:03.000Z,23.6
2024-04-11T10:58:03.000Z,23.46
2024-04-11T11:03:02.000Z,23.46
2024-04-11T11:08:03.000Z,23.5
2024-04-11T11:13:02.000Z,23.58
2024-04-11T11:18:02.000Z,23.53
2024-04-11T11:23:03.000Z,23.4
2024-04-11T11:28:02.000Z,23.37
2024-04-11T11:33:02.000Z,23.39
2024-04-11T11:38:02.000Z,23.27
2024-04-11T11:43:02.000Z,23.35
2024-04-11T11:48:02.000Z,23.33
2024-04-11T11:53:02.000Z,23.18
2024-04-11T11:58:02.000Z,23.14
2024-04-11T12:03:02.000Z,22.99
2024-04-11T12:08:02.000Z,22.97
2024-04-11T12:13:03.000Z,22.92
2024-04-11T12:18:03.000Z,22.77
2024-04-11T12:23:02.000Z,22.5
2024-04-11T12:28:03.000Z,22.41
2024-04-11T12:33:02.000Z,22.4
2024-04-11T12:38:02.000Z,22.28
2024-04-11T12:43:02.000Z,22.16
2024-04-11T12:48:02.000Z,22.06
2024-04-11T12:53:03.000Z,21.88
2024-04-11T12:58:02.000Z,21.76
2024-04-11T13:03:03.000Z,21.7
2024-04-11T13:08:02.000Z,21.62
2024-04-11T13:13:02.000Z,21.43
2024-04-11T13:18:02.000Z,21.41
2024-04-11T13:23:02.000Z,21.48
2024-04-11T13:28:02.000Z,21.38
2024-04-11T13:33:02.000Z,21.24
2024-04-11T13:38:02.000Z,21
2024-04-11T13:43:02.000Z,20.62
2024-04-11T13:48:03.000Z,20.35
2024-04-11T13:53:02.000Z,20.13
2024-04-11T13:58:03.000Z,19.85
2024-04-11T14:03:02.000Z,19.77
2024-04-11T14:08:02.000Z,19.61
2024-04-11T14:13:03.000Z,19.45
2024-04-11T14:18:03.000Z,19.31
2024-04-11T14:23:03.000Z,19.3
2024-04-11T14:28:03.000Z,19.14
2024-04-11T14:33:03.000Z,18.93
2024-04-11T14:38:03.000Z,18.83
2024-04-11T14:43:02.000Z,18.84
2024-04-11T14:48:02.000Z,18.71
2024-04-11T14:53:02.000Z,18.43
2024-04-11T14:58:02.000Z,18.31
2024-04-11T15:03:02.000Z,18.28
2024-04-11T15:08:03.000Z,18.23
2024-04-11T15:13:02.000Z,18.15
2024-04-11T15:18:03.000Z,17.97
2024-04-11T15:23:03.000Z,17.93
2024-04-11T15:28:02.000Z,17.79
2024-04-11T15:33:02.000Z,17.7
2024-04-11T15:38:02.000Z,17.51
2024-04-11T15:43:03.000Z,17.42
2024-04-11T15:48:02.000Z,17.4
2024-04-11T15:53:03.000Z,17.22
2024-04-11T15:58:03.000Z,17.11
2024-04-11T16:03:02.000Z,17.06
2024-04-11T16:08:02.000Z,17.05
2024-04-11T16:13:02.000Z,16.94
2024-04-11T16:18:03.000Z,16.8
2024-04-11T16:23:02.000Z,16.7
2024-04-11T16:28:03.000Z,16.65
2024-04-11T16:33:02.000Z,16.59
2024-04-11T16:38:02.000Z,16.67
2024-04-11T16:43:02.000Z,16.58
2024-04-11T16:48:02.000Z,16.52
2024-04-11T16:53:02.000Z,16.49
2024-04-11T16:58:02.000Z,16.51
2024-04-11T17:03:02.000Z,16.59
2024-04-11T17:08:02.000Z,16.59
2024-04-11T17:13:02.000Z,16.64
2024-04-11T17:18:03.000Z,16.65
2024-04-11T17:23:02.000Z,16.64
2024-04-11T17:28:02.000Z,16.7
2024-04-11T17:33:02.000Z,16.77
2024-04-11T17:38:02.000Z,16.85
2024-04-11T17:43:02.000Z,16.88
2024-04-11T17:48:03.000Z,16.88
2024-04-11T17:53:02.000Z,16.76
2024-04-11T17:58:03.000Z,16.68
2024-04-11T18:03:03.000Z,16.6
2024-04-11T18:08:02.000Z,16.57
2024-04-11T18:13:02.000Z,16.49
2024-04-11T18:18:03.000Z,16.45
2024-04-11T18:23:03.000Z,16.37
2024-04-11T18:28:02.000Z,16.39
2024-04-11T18:33:02.000Z,16.38
2024-04-11T18:38:03.000Z,16.39
2024-04-11T18:43:02.000Z,16.39
2024-04-11T18:48:02.000Z,16.38
2024-04-11T18:53:02.000Z,16.3
2024-04-11T18:58:02.000Z,16.37
2024-04-11T19:03:03.000Z,16.45
2024-04-11T19:08:03.000Z,16.49
2024-04-11T19:13:02.000Z,16.43
2024-04-11T19:18:03.000Z,16.44
2024-04-11T19:23:02.000Z,16.47
2024-04-11T19:28:02.000Z,16.41
2024-04-11T19:33:03.000Z,16.38
2024-04-11T19:38:02.000Z,16.37
2024-04-11T19:43:02.000Z,16.31
2024-04-11T19:48:02.000Z,16.21
2024-04-11T19:53:03.000Z,16.07
2024-04-11T19:58:02.000Z,15.97
2024-04-11T20:03:02.000Z,15.97
2024-04-11T20:08:02.000Z,16.04
2024-04-11T20:13:02.000Z,16.02
2024-04-11T20:18:03.000Z,15.99
2024-04-11T20:23:03.000Z,15.98
2024-04-11T20:28:02.000Z,15.92
2024-04-11T20:33:02.000Z,15.94
2024-04-11T20:38:02.000Z,16.02
2024-04-11T20:43:03.000Z,16.12
2024-04-11T20:48:02.000Z,16.09
2024-04-11T20:53:02.000Z,16.16
2024-04-11T20:58:02.000Z,16.27
2024-04-11T21:03:03.000Z,16.37
2024-04-11T21:08:02.000Z,16.39
2024-04-11T21:13:03.000Z,16.37
2024-04-11T21:18:02.000Z,16.33
2024-04-11T21:23:02.000Z,16.22
2024-04-11T21:28:03.000Z,16.2
2024-04-11T21:33:02.000Z,16.26
2024-04-11T21:38:03.000Z,16.24
2024-04-11T21:43:03.000Z,16.25
2024-04-11T21:48:03.000Z,16.15
2024-04-11T21:53:03.000Z,16.1
2024-04-11T21:58:02.000Z,16.07
2024-04-11T22:03:02.000Z,16.19
2024-04-11T22:08:03.000Z,16.46
2024-04-11T22:13:03.000Z,16.62
2024-04-11T22:18:03.000Z,16.52
2024-04-11T22:23:02.000Z,16.58
2024-04-11T22:28:02.000Z,16.65
2024-04-11T22:33:02.000Z,16.78
2024-04-11T22:38:01.000Z,16.85
2024-04-11T22:43:02.000Z,17.11
2024-04-11T22:48:02.000Z,17.26
2024-04-11T22:53:02.000Z,17.18
2024-04-11T22:58:02.000Z,17.01
2024-04-11T23:03:02.000Z,16.69
2024-04-11T23:08:03.000Z,16.3
2024-04-11T23:13:03.000Z,16.08
2024-04-11T23:18:03.000Z,15.76
2024-04-11T23:23:02.000Z,15.56
2024-04-11T23:28:02.000Z,15.17
2024-04-11T23:33:02.000Z,14.75
2024-04-11T23:38:03.000Z,14.45
2024-04-11T23:43:02.000Z,14.15
2024-04-11T23:48:03.000Z,14.22
2024-04-11T23:53:02.000Z,14.16
2024-04-11T23:58:02.000Z,14
